MA81 weather

Public forecast

Using degrees Fahrenheit for public forecast. Weather courtesy of forecast.io.

Closest aviation weather report (METAR) to Digital Heliport

Closest report is Fitchburg Municipal Airport, 7.4 nm (13.6 km) E. Retrieved 2020/08/15 07:52 UTC (28 minutes ago):

KFIT 150752Z AUTO 00000KT 10SM CLR 17/12 A3003 RMK AO2 SLP168 T01670122

Closest aviation forecast (TAF) to Digital Heliport

Closest forecast is Worcester Regional Airport, 17.4 nm (32.3 km) S. Retrieved 2020/08/15 06:42 UTC (2 hours ago):

TAF KORH 150540Z 1506/1606 02008KT P6SM SKC FM151200 04009KT P6SM BKN200 FM151600 04009KT P6SM BKN040 FM152300 05007KT P6SM BKN090 FM160300 05006KT P6SM BKN035 FM160400 05006KT P6SM BKN025